createdAt,value
2023-03-21T00:00:34.194Z,101613.63
2023-03-21T00:03:00.666Z,101611.91
2023-03-21T00:05:27.259Z,101608.50
2023-03-21T00:07:53.918Z,101604.75
2023-03-21T00:10:33.049Z,101604.03
2023-03-21T00:13:05.856Z,101598.44
2023-03-21T00:15:41.331Z,101600.16
2023-03-21T00:18:12.712Z,101594.69
2023-03-21T00:20:39.220Z,101590.25
2023-03-21T00:23:05.748Z,101598.44
2023-03-21T00:25:33.046Z,101601.88
2023-03-21T00:28:07.944Z,101595.53
2023-03-21T00:30:35.432Z,101590.94
2023-03-21T00:33:12.158Z,101583.06
2023-03-21T00:36:02.603Z,101587.66
2023-03-21T00:38:34.190Z,101583.94
2023-03-21T00:41:04.595Z,101582.91
2023-03-21T00:43:32.782Z,101582.91
2023-03-21T00:46:01.014Z,101581.03
2023-03-21T00:48:28.146Z,101579.47
2023-03-21T00:50:57.160Z,101573.00
2023-03-21T00:53:23.914Z,101576.59
2023-03-21T00:55:50.516Z,101573.72
2023-03-21T00:58:17.655Z,101570.13
2023-03-21T01:00:44.728Z,101562.78
2023-03-21T01:03:23.813Z,101559.22
2023-03-21T01:06:07.070Z,101564.81
2023-03-21T01:08:50.641Z,101557.50
2023-03-21T01:11:22.548Z,101554.75
2023-03-21T01:14:07.233Z,101554.91
2023-03-21T01:16:36.709Z,101552.19
2023-03-21T01:19:05.278Z,101546.56
2023-03-21T01:21:34.237Z,101543.00
2023-03-21T01:24:01.745Z,101541.13
2023-03-21T01:26:28.827Z,101534.97
2023-03-21T01:28:55.434Z,101531.22
2023-03-21T01:31:22.044Z,101531.38
2023-03-21T01:33:48.647Z,101530.53
2023-03-21T01:36:22.353Z,101529.66
2023-03-21T01:38:51.842Z,101531.38
2023-03-21T01:41:33.552Z,101519.59
2023-03-21T01:44:15.346Z,101518.59
2023-03-21T01:47:07.328Z,101514.00
2023-03-21T01:49:49.630Z,101513.84
2023-03-21T01:52:39.554Z,101510.25
2023-03-21T01:55:12.728Z,101509.53
2023-03-21T01:58:04.790Z,101505.81
2023-03-21T02:00:41.477Z,101504.09
2023-03-21T02:03:34.921Z,101493.00
2023-03-21T02:06:44.326Z,101499.50
2023-03-21T02:09:25.691Z,101495.91
2023-03-21T02:11:55.106Z,101488.72
2023-03-21T02:14:29.395Z,101481.41
2023-03-21T02:17:19.646Z,101477.13
2023-03-21T02:19:53.727Z,101476.94
2023-03-21T02:22:39.078Z,101474.94
2023-03-21T02:25:41.371Z,101476.09
2023-03-21T02:28:30.290Z,101469.63
2023-03-21T02:31:15.764Z,101470.63
2023-03-21T02:33:51.471Z,101473.22
2023-03-21T02:36:27.944Z,101465.56
2023-03-21T02:39:07.867Z,101459.09
2023-03-21T02:41:56.140Z,101452.94
2023-03-21T02:44:44.311Z,101451.38
2023-03-21T02:47:13.913Z,101448.81
2023-03-21T02:49:47.434Z,101449.66
2023-03-21T02:52:35.523Z,101446.63
2023-03-21T02:55:07.804Z,101443.88
2023-03-21T02:57:46.508Z,101444.91
2023-03-21T03:00:20.834Z,101441.16
2023-03-21T03:02:54.624Z,101442.00
2023-03-21T03:05:26.896Z,101446.78
2023-03-21T03:08:12.136Z,101451.38
2023-03-21T03:10:57.902Z,101448.34
2023-03-21T03:13:36.594Z,101445.75
2023-03-21T03:16:37.723Z,101444.06
2023-03-21T03:19:10.234Z,101435.84
2023-03-21T03:21:42.231Z,101436.88
2023-03-21T03:24:17.695Z,101431.41
2023-03-21T03:26:55.711Z,101430.41
2023-03-21T03:29:28.043Z,101433.13
2023-03-21T03:32:08.676Z,101424.94
2023-03-21T03:34:41.240Z,101420.03
2023-03-21T03:37:14.167Z,101423.94
2023-03-21T03:39:46.428Z,101420.19
2023-03-21T03:42:28.563Z,101415.03
2023-03-21T03:45:11.084Z,101417.47
2023-03-21T03:47:57.229Z,101416.06
2023-03-21T03:50:35.531Z,101418.63
2023-03-21T03:53:18.358Z,101417.47
2023-03-21T03:55:49.404Z,101414.03
2023-03-21T03:58:23.984Z,101417.47
2023-03-21T04:00:54.524Z,101413.88
2023-03-21T04:03:22.051Z,101418.47
2023-03-21T04:05:49.233Z,101409.28
2023-03-21T04:08:17.268Z,101412.00
2023-03-21T04:10:48.928Z,101408.25
2023-03-21T04:13:15.742Z,101404.50
2023-03-21T04:15:48.197Z,101399.22
2023-03-21T04:18:16.167Z,101395.78
2023-03-21T04:20:45.148Z,101393.91
2023-03-21T04:23:12.749Z,101389.47
2023-03-21T04:25:56.019Z,101394.94
2023-03-21T04:28:26.162Z,101395.63
2023-03-21T04:31:08.701Z,101395.94
2023-03-21T04:33:47.938Z,101392.19
2023-03-21T04:36:26.422Z,101390.31
2023-03-21T04:39:12.082Z,101390.50
2023-03-21T04:41:40.644Z,101386.59
2023-03-21T04:44:07.494Z,101379.41
2023-03-21T04:46:35.328Z,101383.00
2023-03-21T04:49:02.416Z,101385.56
2023-03-21T04:51:29.611Z,101382.66
2023-03-21T04:54:00.209Z,101378.22
2023-03-21T04:56:32.349Z,101375.50
2023-03-21T04:59:00.518Z,101372.78
2023-03-21T05:01:30.599Z,101362.19
2023-03-21T05:04:01.965Z,101373.94
2023-03-21T05:06:32.060Z,101370.22
2023-03-21T05:09:00.198Z,101371.06
2023-03-21T05:11:33.346Z,101377.53
2023-03-21T05:14:00.131Z,101381.28
2023-03-21T05:16:30.642Z,101375.66
2023-03-21T05:18:59.215Z,101376.34
2023-03-21T05:21:29.497Z,101376.34
2023-03-21T05:23:58.438Z,101369.34
2023-03-21T05:26:25.396Z,101361.16
2023-03-21T05:28:58.692Z,101360.31
2023-03-21T05:31:25.647Z,101371.38
2023-03-21T05:34:03.273Z,101368.66
2023-03-21T05:36:30.051Z,101360.31
2023-03-21T05:38:56.565Z,101358.59
2023-03-21T05:41:23.497Z,101352.28
2023-03-21T05:43:50.860Z,101351.44
2023-03-21T05:46:17.540Z,101352.28
2023-03-21T05:48:44.844Z,101350.25
2023-03-21T05:51:16.751Z,101347.69
2023-03-21T05:53:43.355Z,101344.09
2023-03-21T05:56:11.343Z,101349.22
2023-03-21T05:58:54.509Z,101347.53
2023-03-21T06:01:22.547Z,101349.22
2023-03-21T06:03:57.381Z,101346.50
2023-03-21T06:06:26.852Z,101343.78
2023-03-21T06:08:59.720Z,101336.59
2023-03-21T06:11:30.709Z,101341.22
2023-03-21T06:14:21.218Z,101341.22
2023-03-21T06:17:07.984Z,101344.78
2023-03-21T06:19:40.767Z,101345.66
2023-03-21T06:22:11.634Z,101342.91
2023-03-21T06:24:40.330Z,101345.66
2023-03-21T06:27:06.864Z,101345.66
2023-03-21T06:29:46.745Z,101336.59
2023-03-21T06:32:13.852Z,101346.66
2023-03-21T06:34:40.859Z,101349.41
2023-03-21T06:37:07.522Z,101346.50
2023-03-21T06:39:36.191Z,101350.94
2023-03-21T06:42:02.961Z,101347.19
2023-03-21T06:44:29.919Z,101348.38
2023-03-21T06:47:02.258Z,101345.66
2023-03-21T06:49:29.073Z,101346.66
2023-03-21T06:51:59.482Z,101345.81
2023-03-21T06:54:26.375Z,101352.13
2023-03-21T06:56:59.424Z,101353.66
2023-03-21T06:59:29.584Z,101344.63
2023-03-21T07:02:02.631Z,101344.47
2023-03-21T07:04:30.299Z,101347.19
2023-03-21T07:06:57.924Z,101341.75
2023-03-21T07:09:28.061Z,101340.03
2023-03-21T07:11:57.922Z,101341.75
2023-03-21T07:14:34.517Z,101343.63
2023-03-21T07:17:01.057Z,101356.06
2023-03-21T07:19:29.245Z,101356.94
2023-03-21T07:21:55.778Z,101349.94
2023-03-21T07:24:22.340Z,101355.53
2023-03-21T07:26:48.852Z,101355.38
2023-03-21T07:29:17.505Z,101365.13
2023-03-21T07:31:44.027Z,101359.97
2023-03-21T07:34:10.751Z,101372.63
2023-03-21T07:36:37.681Z,101362.38
2023-03-21T07:39:04.956Z,101365.81
2023-03-21T07:41:31.618Z,101371.09
2023-03-21T07:44:10.223Z,101366.66
2023-03-21T07:46:36.712Z,101366.84
2023-03-21T07:49:03.270Z,101379.47
2023-03-21T07:51:29.791Z,101381.34
2023-03-21T07:53:56.246Z,101382.88
2023-03-21T07:56:23.878Z,101377.44
2023-03-21T07:58:50.439Z,101379.31
2023-03-21T08:01:16.957Z,101383.56
2023-03-21T08:03:43.572Z,101374.53
2023-03-21T08:06:10.501Z,101380.84
2023-03-21T08:08:37.227Z,101381.88
2023-03-21T08:11:05.342Z,101374.53
2023-03-21T08:13:32.749Z,101369.06
2023-03-21T08:15:59.333Z,101371.81
2023-03-21T08:18:26.068Z,101363.63
2023-03-21T08:20:54.483Z,101361.91
2023-03-21T08:23:21.573Z,101364.63
2023-03-21T08:25:55.829Z,101359.00
2023-03-21T08:28:23.251Z,101350.97
2023-03-21T08:30:50.388Z,101350.28
2023-03-21T08:33:24.672Z,101339.53
2023-03-21T08:35:51.526Z,101336.81
2023-03-21T08:38:18.186Z,101334.09
2023-03-21T08:40:44.769Z,101333.22
2023-03-21T08:43:12.705Z,101333.22
2023-03-21T08:45:40.784Z,101330.34
2023-03-21T08:48:07.408Z,101329.31
2023-03-21T08:50:33.886Z,101328.47
2023-03-21T08:53:00.403Z,101330.34
2023-03-21T08:55:26.935Z,101321.28
2023-03-21T08:57:53.466Z,101324.03
2023-03-21T09:00:21.697Z,101319.59
2023-03-21T09:02:51.399Z,101329.47
2023-03-21T09:05:18.683Z,101332.22
2023-03-21T09:07:46.149Z,101330.50
2023-03-21T09:10:20.687Z,101332.38
2023-03-21T09:12:50.420Z,101331.19
2023-03-21T09:15:18.473Z,101324.03
2023-03-21T09:17:52.390Z,101325.03
2023-03-21T09:20:31.108Z,101324.34
2023-03-21T09:22:59.185Z,101319.91
2023-03-21T09:25:31.402Z,101316.31
2023-03-21T09:27:59.576Z,101309.16
2023-03-21T09:30:26.683Z,101306.59
2023-03-21T09:32:55.595Z,101301.13
2023-03-21T09:35:22.623Z,101300.97
2023-03-21T09:37:49.918Z,101298.06
2023-03-21T09:40:40.975Z,101299.63
2023-03-21T09:43:43.901Z,101293.16
2023-03-21T09:46:19.211Z,101285.81
2023-03-21T09:49:10.604Z,101286.66
2023-03-21T09:51:41.400Z,101296.56
2023-03-21T09:54:23.450Z,101285.66
2023-03-21T09:56:54.639Z,101287.53
2023-03-21T09:59:48.372Z,101286.50
2023-03-21T10:02:38.204Z,101270.97
2023-03-21T10:05:26.426Z,101286.34
2023-03-21T10:07:59.135Z,101269.97
2023-03-21T10:10:31.395Z,101257.34
2023-03-21T10:12:57.917Z,101265.53
2023-03-21T10:15:27.214Z,101258.34
2023-03-21T10:18:06.188Z,101263.13
2023-03-21T10:20:38.368Z,101255.09
2023-03-21T10:23:07.946Z,101250.50
2023-03-21T10:25:42.205Z,101255.94
2023-03-21T10:28:21.472Z,101247.75
2023-03-21T10:31:00.807Z,101243.50
2023-03-21T10:33:33.899Z,101245.38
2023-03-21T10:36:05.360Z,101243.50
2023-03-21T10:38:32.176Z,101246.22
2023-03-21T10:40:58.800Z,101235.13
2023-03-21T10:43:29.701Z,101233.09
2023-03-21T10:45:57.496Z,101224.91
2023-03-21T10:48:24.887Z,101223.03
2023-03-21T10:50:56.181Z,101223.03
2023-03-21T10:53:32.148Z,101227.47
2023-03-21T10:56:06.476Z,101228.84
2023-03-21T10:58:39.509Z,101227.41
2023-03-21T11:01:10.108Z,101223.63
2023-03-21T11:03:43.499Z,101228.56
2023-03-21T11:06:22.061Z,101222.38
2023-03-21T11:08:53.827Z,101227.91
2023-03-21T11:11:25.465Z,101234.59
2023-03-21T11:14:07.108Z,101237.69
2023-03-21T11:16:40.491Z,101241.94
2023-03-21T11:19:16.663Z,101232.75
2023-03-21T11:21:43.758Z,101245.19
2023-03-21T11:24:18.711Z,101235.84
2023-03-21T11:26:48.829Z,101243.16
2023-03-21T11:29:33.229Z,101239.56
2023-03-21T11:32:02.518Z,101229.69
2023-03-21T11:34:38.934Z,101225.94
2023-03-21T11:37:05.450Z,101214.84
2023-03-21T11:39:41.066Z,101227.47
2023-03-21T11:42:26.952Z,101230.22
2023-03-21T11:45:11.902Z,101219.47
2023-03-21T11:47:39.636Z,101221.84
2023-03-21T11:50:17.770Z,101221.34
2023-03-21T11:53:02.523Z,101224.06
2023-03-21T11:55:41.102Z,101216.72
2023-03-21T11:58:21.053Z,101214.84
2023-03-21T12:01:01.216Z,101202.91
2023-03-21T12:03:49.034Z,101198.47
2023-03-21T12:06:28.513Z,101196.59
2023-03-21T12:09:25.230Z,101195.06
2023-03-21T12:12:07.484Z,101188.59
2023-03-21T12:14:49.234Z,101189.59
2023-03-21T12:17:32.634Z,101185.00
2023-03-21T12:20:20.780Z,101179.38
2023-03-21T12:22:57.955Z,101171.53
2023-03-21T12:25:54.131Z,101170.50
2023-03-21T12:28:39.419Z,101171.03
2023-03-21T12:31:12.816Z,101160.28
2023-03-21T12:33:48.630Z,101149.53
2023-03-21T12:36:29.448Z,101150.22
2023-03-21T12:39:19.101Z,101149.84
2023-03-21T12:42:01.231Z,101148.31
2023-03-21T12:44:32.802Z,101144.72
2023-03-21T12:47:19.526Z,101145.75
2023-03-21T12:49:59.787Z,101146.94
2023-03-21T12:52:32.511Z,101150.16
2023-03-21T12:55:04.195Z,101139.59
2023-03-21T12:57:57.217Z,101141.66
2023-03-21T13:00:42.850Z,101141.66
2023-03-21T13:03:19.590Z,101146.25
2023-03-21T13:05:58.781Z,101143.84
2023-03-21T13:08:30.378Z,101138.72
2023-03-21T13:11:00.193Z,101125.41
2023-03-21T13:13:36.000Z,101131.03
2023-03-21T13:16:20.204Z,101131.03
2023-03-21T13:19:13.838Z,101125.75
2023-03-21T13:21:43.285Z,101125.75
2023-03-21T13:24:32.270Z,101120.28
2023-03-21T13:27:06.911Z,101111.56
2023-03-21T13:30:02.372Z,101107.66
2023-03-21T13:32:38.412Z,101111.09
2023-03-21T13:35:27.464Z,101114.13
2023-03-21T13:37:59.605Z,101106.78
2023-03-21T13:40:34.611Z,101107.50
2023-03-21T13:43:03.447Z,101099.47
2023-03-21T13:45:45.522Z,101104.22
2023-03-21T13:48:32.936Z,101094.72
2023-03-21T13:51:02.637Z,101093.16
2023-03-21T13:53:38.191Z,101093.88
2023-03-21T13:56:20.298Z,101096.25
2023-03-21T13:58:46.825Z,101079.06
2023-03-21T14:01:27.202Z,101078.03
2023-03-21T14:04:05.251Z,101073.78
2023-03-21T14:06:36.235Z,101067.97
2023-03-21T14:09:04.069Z,101080.59
2023-03-21T14:11:32.751Z,101075.66
2023-03-21T14:14:01.176Z,101065.59
2023-03-21T14:16:28.876Z,101069.19
2023-03-21T14:19:05.059Z,101055.03
2023-03-21T14:21:34.406Z,101049.41
2023-03-21T14:24:14.312Z,101052.31
2023-03-21T14:26:45.737Z,101044.97
2023-03-21T14:29:27.154Z,101046.84
2023-03-21T14:31:56.266Z,101048.88
2023-03-21T14:34:24.053Z,101048.22
2023-03-21T14:36:58.235Z,101054.53
2023-03-21T14:39:30.768Z,101049.41
2023-03-21T14:42:04.510Z,101042.41
2023-03-21T14:44:47.424Z,101044.97
2023-03-21T14:47:25.563Z,101040.88
2023-03-21T14:49:52.726Z,101043.25
2023-03-21T14:52:31.495Z,101036.94
2023-03-21T14:54:59.613Z,101038.13
2023-03-21T14:57:29.340Z,101035.41
2023-03-21T15:00:00.684Z,101027.91
2023-03-21T15:02:32.377Z,101021.75
2023-03-21T15:05:08.271Z,101023.63
2023-03-21T15:07:36.219Z,101034.88
2023-03-21T15:10:18.065Z,101025.28
2023-03-21T15:13:19.576Z,101028.88
2023-03-21T15:15:47.252Z,101028.34
2023-03-21T15:18:19.861Z,101035.53
2023-03-21T15:20:49.440Z,101028.88
2023-03-21T15:23:27.362Z,101033.81
2023-03-21T15:25:54.333Z,101039.78
2023-03-21T15:28:20.991Z,101045.78
2023-03-21T15:30:52.945Z,101049.38
2023-03-21T15:33:20.610Z,101041.19
2023-03-21T15:35:56.009Z,101043.59
2023-03-21T15:38:36.532Z,101032.16
2023-03-21T15:41:21.183Z,101028.53
2023-03-21T15:44:06.433Z,101023.09
2023-03-21T15:46:43.677Z,101016.78
2023-03-21T15:49:27.857Z,101021.59
2023-03-21T15:51:59.420Z,101019.50
2023-03-21T15:54:36.933Z,101023.25
2023-03-21T15:57:09.480Z,101023.81
2023-03-21T15:59:41.760Z,101027.91
2023-03-21T16:02:20.278Z,101027.03
2023-03-21T16:05:21.962Z,101030.97
2023-03-21T16:07:48.687Z,101020.72
2023-03-21T16:11:31.826Z,101036.03
2023-03-21T16:13:59.312Z,101038.91
2023-03-21T16:16:28.441Z,101040.97
2023-03-21T16:18:57.487Z,101030.97
2023-03-21T16:21:28.401Z,101030.63
2023-03-21T16:23:55.638Z,101034.38
2023-03-21T16:26:25.398Z,101040.19
2023-03-21T16:28:53.018Z,101045.31
2023-03-21T16:31:22.870Z,101039.16
2023-03-21T16:33:49.760Z,101044.63
2023-03-21T16:36:19.685Z,101037.28
2023-03-21T16:38:52.005Z,101037.13
2023-03-21T16:41:20.811Z,101040.03
2023-03-21T16:43:47.961Z,101049.06
2023-03-21T16:46:24.787Z,101051.97
2023-03-21T16:48:54.049Z,101046.84
2023-03-21T16:51:33.303Z,101042.91
2023-03-21T16:54:00.405Z,101045.66
2023-03-21T16:56:43.009Z,101058.44
2023-03-21T16:59:13.094Z,101057.59
2023-03-21T17:01:41.360Z,101060.31
2023-03-21T17:04:09.003Z,101069.34
2023-03-21T17:06:44.666Z,101088.63
2023-03-21T17:09:14.289Z,101090.81
2023-03-21T17:11:44.424Z,101083.50
2023-03-21T17:14:12.468Z,101086.41
2023-03-21T17:16:42.585Z,101084.34
2023-03-21T17:19:18.354Z,101085.38
2023-03-21T17:21:46.482Z,101086.22
2023-03-21T17:24:13.660Z,101092.69
2023-03-21T17:26:40.320Z,101088.28
2023-03-21T17:29:07.332Z,101090.16
2023-03-21T17:31:36.787Z,101106.34
2023-03-21T17:34:04.549Z,101103.63
2023-03-21T17:36:34.478Z,101094.06
2023-03-21T17:39:03.707Z,101093.22
2023-03-21T17:41:30.227Z,101082.97
2023-03-21T17:43:56.897Z,101085.53
2023-03-21T17:46:25.771Z,101084.00
2023-03-21T17:48:52.681Z,101075.97
2023-03-21T17:51:19.434Z,101075.81
2023-03-21T17:53:51.052Z,101079.72
2023-03-21T17:56:20.575Z,101075.28
2023-03-21T17:58:47.232Z,101079.72
2023-03-21T18:01:16.820Z,101072.22
2023-03-21T18:03:43.607Z,101066.78
2023-03-21T18:06:19.295Z,101064.22
2023-03-21T18:08:46.800Z,101059.44
2023-03-21T18:11:14.241Z,101063.19
2023-03-21T18:13:44.801Z,101056.88
2023-03-21T18:16:17.952Z,101062.34
2023-03-21T18:18:46.470Z,101059.44
2023-03-21T18:21:14.447Z,101062.34
2023-03-21T18:23:41.430Z,101055.69
2023-03-21T18:26:09.761Z,101045.97
2023-03-21T18:28:39.551Z,101048.69
2023-03-21T18:31:15.613Z,101037.09
2023-03-21T18:33:46.874Z,101050.75
2023-03-21T18:36:16.690Z,101058.75
2023-03-21T18:38:43.801Z,101057.06
2023-03-21T18:41:10.754Z,101058.94
2023-03-21T18:46:25.080Z,101044.44
2023-03-21T18:48:51.910Z,101053.47
2023-03-21T18:51:19.341Z,101053.31
2023-03-21T18:53:46.229Z,101051.09
2023-03-21T18:56:46.552Z,101046.66
2023-03-21T18:59:01.052Z,101054.66
2023-03-21T19:01:27.634Z,101058.59
2023-03-21T19:04:20.464Z,101054.00
2023-03-21T19:06:47.236Z,101047.84
2023-03-21T19:09:14.692Z,101049.72
2023-03-21T19:11:44.144Z,101055.34
2023-03-21T19:14:14.946Z,101049.03
2023-03-21T19:17:34.297Z,101047.84
2023-03-21T19:19:30.226Z,101047.84
2023-03-21T19:21:57.243Z,101037.28
2023-03-21T19:24:28.082Z,101037.28
2023-03-21T19:26:54.983Z,101045.28
2023-03-21T19:29:22.064Z,101050.91
2023-03-21T19:31:51.009Z,101047.34
2023-03-21T19:34:18.644Z,101046.31
2023-03-21T19:36:50.734Z,101049.22
2023-03-21T19:39:21.909Z,101041.72
2023-03-21T19:41:48.967Z,101044.59
2023-03-21T19:44:16.206Z,101046.31
2023-03-21T19:46:42.853Z,101038.13
2023-03-21T19:49:09.604Z,101037.09
2023-03-21T19:51:37.040Z,101036.09
2023-03-21T19:54:05.626Z,101039.66
2023-03-21T19:56:34.507Z,101033.53
2023-03-21T19:59:03.112Z,101037.28
2023-03-21T20:01:32.231Z,101038.81
2023-03-21T20:03:59.680Z,101037.28
2023-03-21T20:06:26.827Z,101040.19
2023-03-21T20:09:33.913Z,101034.22
2023-03-21T20:11:40.768Z,101034.22
2023-03-21T20:14:07.492Z,101023.28
2023-03-21T20:16:35.705Z,101023.47
2023-03-21T20:19:09.097Z,101023.63
2023-03-21T20:21:46.607Z,101019.88
2023-03-21T20:24:16.950Z,101021.06
2023-03-21T20:26:45.089Z,101021.06
2023-03-21T20:30:03.848Z,101026.19
2023-03-21T20:31:58.647Z,101025.50
2023-03-21T20:34:25.370Z,101022.59
2023-03-21T20:36:53.176Z,101028.41
2023-03-21T20:39:19.714Z,101027.03
2023-03-21T20:41:46.265Z,101027.91
2023-03-21T20:44:44.806Z,101025.16
2023-03-21T20:47:00.483Z,101030.63
2023-03-21T20:49:28.462Z,101029.94
2023-03-21T20:52:49.842Z,101034.72
2023-03-21T20:54:42.261Z,101036.41
2023-03-21T20:57:09.127Z,101027.22
2023-03-21T20:59:35.776Z,101031.97
2023-03-21T21:02:03.158Z,101022.94
2023-03-21T21:04:48.163Z,101020.91
2023-03-21T21:07:20.301Z,101021.06
2023-03-21T21:09:48.091Z,101015.44
2023-03-21T21:12:16.538Z,101023.47
2023-03-21T21:14:43.703Z,101012.72
2023-03-21T21:17:28.381Z,101007.25
2023-03-21T21:19:56.837Z,101004.38
2023-03-21T21:22:23.356Z,101009.81
2023-03-21T21:24:49.866Z,101012.88
2023-03-21T21:27:16.404Z,101005.56
2023-03-21T21:29:43.350Z,101006.41
2023-03-21T21:32:10.094Z,101005.22
2023-03-21T21:34:37.192Z,101002.66
2023-03-21T21:37:03.793Z,101005.38
2023-03-21T21:39:35.791Z,101006.41
2023-03-21T21:42:02.637Z,100998.41
2023-03-21T21:44:29.339Z,101000.28
2023-03-21T21:46:57.422Z,100999.25
2023-03-21T21:49:24.246Z,100997.38
2023-03-21T21:51:50.802Z,100998.22
2023-03-21T21:54:18.306Z,100989.19
2023-03-21T21:56:48.314Z,100996.34
2023-03-21T21:59:21.977Z,100991.91
2023-03-21T22:01:51.371Z,100989.19
2023-03-21T22:04:18.932Z,100996.34
2023-03-21T22:06:47.523Z,100995.50
2023-03-21T22:09:15.684Z,100988.50
2023-03-21T22:11:42.431Z,100987.47
2023-03-21T22:14:09.042Z,100988.50
2023-03-21T22:16:35.867Z,100993.97
2023-03-21T22:19:02.453Z,100984.03
2023-03-21T22:21:29.083Z,100988.34
2023-03-21T22:23:55.779Z,100984.88
2023-03-21T22:26:23.366Z,100984.03
2023-03-21T22:28:49.962Z,100987.63
2023-03-21T22:31:17.045Z,100983.19
2023-03-21T22:33:44.941Z,100980.63
2023-03-21T22:36:11.976Z,100978.75
2023-03-21T22:38:38.546Z,100977.72
2023-03-21T22:41:06.444Z,100980.47
2023-03-21T22:43:34.351Z,100986.63
2023-03-21T22:46:02.579Z,100980.31
2023-03-21T22:48:32.315Z,100973.97
2023-03-21T22:50:59.845Z,100976.41
2023-03-21T22:53:26.909Z,100983.72
2023-03-21T22:55:53.647Z,100963.78
2023-03-21T22:58:20.674Z,100967.19
2023-03-21T23:00:47.677Z,100954.25
2023-03-21T23:03:16.621Z,100959.00
2023-03-21T23:05:44.301Z,100963.06
2023-03-21T23:08:11.766Z,100961.38
2023-03-21T23:10:39.832Z,100960.00
2023-03-21T23:13:06.856Z,100965.78
2023-03-21T23:15:33.831Z,100970.41
2023-03-21T23:18:00.418Z,100969.22
2023-03-21T23:20:27.012Z,100961.03
2023-03-21T23:22:53.537Z,100971.06
2023-03-21T23:25:20.495Z,100962.72
2023-03-21T23:27:47.657Z,100954.53
2023-03-21T23:30:14.449Z,100957.28
2023-03-21T23:32:41.209Z,100952.84
2023-03-21T23:35:08.168Z,100953.53
2023-03-21T23:37:34.671Z,100953.34
2023-03-21T23:40:01.163Z,100944.31
2023-03-21T23:42:29.087Z,100939.72
2023-03-21T23:44:55.662Z,100945.00
2023-03-21T23:47:22.138Z,100950.44
2023-03-21T23:49:50.003Z,100945.00
2023-03-21T23:52:16.700Z,100933.94
2023-03-21T23:54:43.332Z,100942.97
2023-03-21T23:57:10.409Z,100941.25
2023-03-21T23:59:37.002Z,100942.13
